createdAt,value
2022-08-04T00:01:21.602Z,51.80
2022-08-04T00:03:51.414Z,51.90
2022-08-04T00:06:22.212Z,52.00
2022-08-04T00:08:49.675Z,52.10
2022-08-04T00:11:23.390Z,51.70
2022-08-04T00:14:02.889Z,51.70
2022-08-04T00:16:32.878Z,51.50
2022-08-04T00:19:05.121Z,51.00
2022-08-04T00:21:31.930Z,51.00
2022-08-04T00:24:11.538Z,51.00
2022-08-04T00:26:40.028Z,50.90
2022-08-04T00:29:06.731Z,51.10
2022-08-04T00:31:55.082Z,51.10
2022-08-04T00:34:20.230Z,51.20
2022-08-04T00:36:46.975Z,51.40
2022-08-04T00:39:14.085Z,51.30
2022-08-04T00:41:57.049Z,51.50
2022-08-04T00:44:42.733Z,51.40
2022-08-04T00:47:28.165Z,51.60
2022-08-04T00:50:04.069Z,51.60
2022-08-04T00:52:39.983Z,51.50
2022-08-04T00:55:13.239Z,51.60
2022-08-04T00:57:39.922Z,51.70
2022-08-04T01:00:09.624Z,51.70
2022-08-04T01:02:40.360Z,51.90
2022-08-04T01:05:25.433Z,52.10
2022-08-04T01:07:59.707Z,51.90
2022-08-04T01:10:32.695Z,51.60
2022-08-04T01:13:10.085Z,51.40
2022-08-04T01:15:56.379Z,51.10
2022-08-04T01:18:41.192Z,50.90
2022-08-04T01:21:26.775Z,50.90
2022-08-04T01:23:59.588Z,51.10
2022-08-04T01:26:53.643Z,51.20
2022-08-04T01:29:36.999Z,51.30
2022-08-04T01:32:32.412Z,51.30
2022-08-04T01:35:15.382Z,51.40
2022-08-04T01:37:49.707Z,51.50
2022-08-04T01:40:16.509Z,51.50
2022-08-04T01:42:43.548Z,51.40
2022-08-04T01:45:10.665Z,51.60
2022-08-04T01:47:38.067Z,51.60
2022-08-04T01:50:08.687Z,52.20
2022-08-04T01:52:36.263Z,51.70
2022-08-04T01:55:04.102Z,51.70
2022-08-04T01:57:38.031Z,51.80
2022-08-04T02:00:06.799Z,52.00
2022-08-04T02:02:33.971Z,51.80
2022-08-04T02:05:00.832Z,51.50
2022-08-04T02:07:27.621Z,51.20
2022-08-04T02:10:08.538Z,51.10
2022-08-04T02:13:07.730Z,51.10
2022-08-04T02:15:37.057Z,51.20
2022-08-04T02:18:10.582Z,51.20
2022-08-04T02:20:43.784Z,51.20
2022-08-04T02:23:14.128Z,51.40
2022-08-04T02:25:42.064Z,51.40
2022-08-04T02:28:15.757Z,51.40
2022-08-04T02:30:49.203Z,51.40
2022-08-04T02:33:17.688Z,51.40
2022-08-04T02:35:44.437Z,51.50
2022-08-04T02:38:25.559Z,51.50
2022-08-04T02:40:53.529Z,51.50
2022-08-04T02:43:51.811Z,51.70
2022-08-04T02:46:18.009Z,51.80
2022-08-04T02:48:45.999Z,51.50
2022-08-04T02:51:13.203Z,51.40
2022-08-04T02:53:40.325Z,51.10
2022-08-04T02:56:07.358Z,50.80
2022-08-04T02:58:34.696Z,50.80
2022-08-04T03:01:01.782Z,50.70
2022-08-04T03:03:39.256Z,50.70
2022-08-04T03:06:12.141Z,50.70
2022-08-04T03:08:48.029Z,50.70
2022-08-04T03:11:14.729Z,50.90
2022-08-04T03:13:47.465Z,51.00
2022-08-04T03:16:14.171Z,51.10
2022-08-04T03:18:53.088Z,51.70
2022-08-04T03:21:29.019Z,51.30
2022-08-04T03:24:08.009Z,51.30
2022-08-04T03:26:34.695Z,51.90
2022-08-04T03:29:04.564Z,51.30
2022-08-04T03:31:43.616Z,51.40
2022-08-04T03:34:10.321Z,51.40
2022-08-04T03:36:43.180Z,51.50
2022-08-04T03:39:28.917Z,51.50
2022-08-04T03:42:04.679Z,51.50
2022-08-04T03:44:47.046Z,51.70
2022-08-04T03:47:13.795Z,52.40
2022-08-04T03:49:40.575Z,51.40
2022-08-04T03:52:45.492Z,51.30
2022-08-04T03:55:16.931Z,51.00
2022-08-04T03:57:46.695Z,50.70
2022-08-04T04:00:25.986Z,50.70
2022-08-04T04:03:08.038Z,50.70
2022-08-04T04:05:59.013Z,50.60
2022-08-04T04:08:27.545Z,50.80
2022-08-04T04:11:07.437Z,50.90
2022-08-04T04:13:43.163Z,50.90
2022-08-04T04:16:28.923Z,51.10
2022-08-04T04:19:02.183Z,51.20
2022-08-04T04:21:47.360Z,51.20
2022-08-04T04:24:17.191Z,51.20
2022-08-04T04:26:46.928Z,51.20
2022-08-04T04:29:24.995Z,51.90
2022-08-04T04:31:54.942Z,51.20
2022-08-04T04:34:31.228Z,51.20
2022-08-04T04:37:04.102Z,51.30
2022-08-04T04:39:42.246Z,51.40
2022-08-04T04:42:12.170Z,52.10
2022-08-04T04:44:54.095Z,51.50
2022-08-04T04:48:09.047Z,51.30
2022-08-04T04:50:34.988Z,51.10
2022-08-04T04:53:06.855Z,51.40
2022-08-04T04:55:47.986Z,52.00
2022-08-04T04:58:15.692Z,52.70
2022-08-04T05:01:01.182Z,53.40
2022-08-04T05:03:46.673Z,54.00
2022-08-04T05:06:15.205Z,54.40
2022-08-04T05:08:54.581Z,54.80
2022-08-04T05:11:33.564Z,55.70
2022-08-04T05:14:37.447Z,55.50
2022-08-04T05:17:27.205Z,55.80
2022-08-04T05:19:55.994Z,56.00
2022-08-04T05:22:25.730Z,56.40
2022-08-04T05:24:55.166Z,56.20
2022-08-04T05:27:25.261Z,56.20
2022-08-04T05:29:58.010Z,56.40
2022-08-04T05:32:26.724Z,57.10
2022-08-04T05:34:56.879Z,56.80
2022-08-04T05:37:24.061Z,56.80
2022-08-04T05:39:58.818Z,56.80
2022-08-04T05:42:25.674Z,56.80
2022-08-04T05:44:52.403Z,57.10
2022-08-04T05:47:21.634Z,57.30
2022-08-04T05:50:01.129Z,57.40
2022-08-04T05:52:29.562Z,57.70
2022-08-04T05:54:56.313Z,57.90
2022-08-04T05:57:23.413Z,58.00
2022-08-04T05:59:50.508Z,58.80
2022-08-04T06:02:18.154Z,58.50
2022-08-04T06:04:47.209Z,58.60
2022-08-04T06:07:16.932Z,58.70
2022-08-04T06:09:43.635Z,59.00
2022-08-04T06:12:15.729Z,59.40
2022-08-04T06:14:43.471Z,59.90
2022-08-04T06:18:34.030Z,59.80
2022-08-04T06:20:17.651Z,59.60
2022-08-04T06:22:46.168Z,59.00
2022-08-04T06:25:14.155Z,58.70
2022-08-04T06:27:43.392Z,58.90
2022-08-04T06:30:14.439Z,59.10
2022-08-04T06:32:48.511Z,58.50
2022-08-04T06:35:16.569Z,58.30
2022-08-04T06:37:44.467Z,58.00
2022-08-04T06:40:29.821Z,58.40
2022-08-04T06:42:59.255Z,57.80
2022-08-04T06:45:26.361Z,56.90
2022-08-04T06:47:54.487Z,56.20
2022-08-04T06:51:24.726Z,56.00
2022-08-04T06:53:10.488Z,55.60
2022-08-04T06:55:37.531Z,55.50
2022-08-04T06:58:04.257Z,55.70
2022-08-04T07:00:31.512Z,55.60
2022-08-04T07:02:58.499Z,55.70
2022-08-04T07:05:28.784Z,55.60
2022-08-04T07:07:57.197Z,55.10
2022-08-04T07:10:29.424Z,54.50
2022-08-04T07:12:57.217Z,54.30
2022-08-04T07:15:24.635Z,53.70
2022-08-04T07:17:52.169Z,53.80
2022-08-04T07:20:34.577Z,53.20
2022-08-04T07:23:06.057Z,52.90
2022-08-04T07:25:59.532Z,53.20
2022-08-04T07:28:23.759Z,53.10
2022-08-04T07:30:50.606Z,53.10
2022-08-04T07:33:17.445Z,53.10
2022-08-04T07:36:05.047Z,53.10
2022-08-04T07:38:31.576Z,53.30
2022-08-04T07:40:59.848Z,53.80
2022-08-04T07:43:27.972Z,53.20
2022-08-04T07:45:54.748Z,53.00
2022-08-04T07:48:23.265Z,53.30
2022-08-04T07:50:50.613Z,53.00
2022-08-04T07:53:55.011Z,53.00
2022-08-04T07:56:04.127Z,53.00
2022-08-04T07:58:31.529Z,53.10
2022-08-04T08:01:00.280Z,53.00
2022-08-04T08:03:27.073Z,53.10
2022-08-04T08:05:54.661Z,53.00
2022-08-04T08:08:40.845Z,53.00
2022-08-04T08:11:07.806Z,52.70
2022-08-04T08:13:34.512Z,52.50
2022-08-04T08:16:01.340Z,52.10
2022-08-04T08:18:28.073Z,51.80
2022-08-04T08:20:55.590Z,51.70
2022-08-04T08:23:22.708Z,51.70
2022-08-04T08:25:49.833Z,52.00
2022-08-04T08:28:17.392Z,52.00
2022-08-04T08:30:44.148Z,52.00
2022-08-04T08:33:13.485Z,52.20
2022-08-04T08:36:00.760Z,52.30
2022-08-04T08:38:29.432Z,52.30
2022-08-04T08:40:59.680Z,52.40
2022-08-04T08:44:05.722Z,52.40
2022-08-04T08:46:38.755Z,52.60
2022-08-04T08:50:00.344Z,52.60
2022-08-04T08:52:10.811Z,52.60
2022-08-04T08:54:56.761Z,52.60
2022-08-04T08:57:36.029Z,52.70
2022-08-04T09:00:17.485Z,52.70
2022-08-04T09:03:07.993Z,52.70
2022-08-04T09:05:43.242Z,52.70
2022-08-04T09:08:28.713Z,52.50
2022-08-04T09:11:15.847Z,52.20
2022-08-04T09:13:48.874Z,51.80
2022-08-04T09:16:19.308Z,51.60
2022-08-04T09:18:55.543Z,51.50
2022-08-04T09:21:24.578Z,51.60
2022-08-04T09:23:54.404Z,51.70
2022-08-04T09:26:40.395Z,51.70
2022-08-04T09:29:21.225Z,51.80
2022-08-04T09:32:06.364Z,51.90
2022-08-04T09:35:05.296Z,52.20
2022-08-04T09:37:46.278Z,52.20
2022-08-04T09:40:28.977Z,52.40
2022-08-04T09:43:10.081Z,52.30
2022-08-04T09:45:43.193Z,52.50
2022-08-04T09:48:15.559Z,53.10
2022-08-04T09:50:50.068Z,52.60
2022-08-04T09:53:36.077Z,52.70
2022-08-04T09:56:03.461Z,52.60
2022-08-04T09:58:45.793Z,52.60
2022-08-04T10:01:23.626Z,52.50
2022-08-04T10:03:57.846Z,52.20
2022-08-04T10:06:41.521Z,51.90
2022-08-04T10:09:14.341Z,51.80
2022-08-04T10:11:55.384Z,51.40
2022-08-04T10:14:37.016Z,51.40
2022-08-04T10:17:12.930Z,51.50
2022-08-04T10:19:40.326Z,51.60
2022-08-04T10:22:29.671Z,51.70
2022-08-04T10:25:44.459Z,51.90
2022-08-04T10:27:59.205Z,52.10
2022-08-04T10:30:26.235Z,52.10
2022-08-04T10:33:09.100Z,52.30
2022-08-04T10:35:38.081Z,52.30
2022-08-04T10:38:08.991Z,52.30
2022-08-04T10:40:55.090Z,52.50
2022-08-04T10:43:40.976Z,52.40
2022-08-04T10:46:09.909Z,52.80
2022-08-04T10:48:42.029Z,52.60
2022-08-04T10:51:31.411Z,52.40
2022-08-04T10:54:27.127Z,52.10
2022-08-04T10:56:57.000Z,51.90
2022-08-04T10:59:31.724Z,51.60
2022-08-04T11:02:03.756Z,51.20
2022-08-04T11:04:37.052Z,51.40
2022-08-04T11:07:05.192Z,51.40
2022-08-04T11:09:32.123Z,51.70
2022-08-04T11:12:08.124Z,51.80
2022-08-04T11:14:39.944Z,51.90
2022-08-04T11:17:08.263Z,52.10
2022-08-04T11:19:43.040Z,52.10
2022-08-04T11:22:14.394Z,52.40
2022-08-04T11:24:45.813Z,52.30
2022-08-04T11:27:14.380Z,52.50
2022-08-04T11:29:44.988Z,52.50
2022-08-04T11:32:17.871Z,52.50
2022-08-04T11:34:52.968Z,52.60
2022-08-04T11:37:27.737Z,52.40
2022-08-04T11:39:59.466Z,52.20
2022-08-04T11:42:26.373Z,51.90
2022-08-04T11:45:11.963Z,51.70
2022-08-04T11:47:41.707Z,51.20
2022-08-04T11:50:10.144Z,51.30
2022-08-04T11:52:41.027Z,51.20
2022-08-04T11:55:08.917Z,51.20
2022-08-04T11:57:36.710Z,51.40
2022-08-04T12:00:07.663Z,52.20
2022-08-04T12:02:37.940Z,51.70
2022-08-04T12:05:05.264Z,51.90
2022-08-04T12:07:41.870Z,51.80
2022-08-04T12:10:15.131Z,52.10
2022-08-04T12:12:54.587Z,52.00
2022-08-04T12:15:21.553Z,52.20
2022-08-04T12:17:55.259Z,52.30
2022-08-04T12:20:31.402Z,52.90
2022-08-04T12:23:00.234Z,52.20
2022-08-04T12:25:31.501Z,52.10
2022-08-04T12:28:00.474Z,51.90
2022-08-04T12:30:58.643Z,51.60
2022-08-04T12:33:17.878Z,51.40
2022-08-04T12:35:57.546Z,51.20
2022-08-04T12:38:33.286Z,51.20
2022-08-04T12:41:00.861Z,51.30
2022-08-04T12:43:33.632Z,51.20
2022-08-04T12:46:04.260Z,51.50
2022-08-04T12:48:32.031Z,51.60
2022-08-04T12:51:00.403Z,51.90
2022-08-04T12:53:31.971Z,51.90
2022-08-04T12:56:01.824Z,51.90
2022-08-04T12:58:43.542Z,52.10
2022-08-04T13:02:09.505Z,52.20
2022-08-04T13:04:12.167Z,52.30
2022-08-04T13:06:40.102Z,52.30
2022-08-04T13:09:18.389Z,52.40
2022-08-04T13:11:51.041Z,52.30
2022-08-04T13:14:27.014Z,52.00
2022-08-04T13:16:59.442Z,51.90
2022-08-04T13:19:26.358Z,51.50
2022-08-04T13:22:02.868Z,52.00
2022-08-04T13:24:32.017Z,51.20
2022-08-04T13:27:03.783Z,51.30
2022-08-04T13:30:00.818Z,51.30
2022-08-04T13:32:27.713Z,51.40
2022-08-04T13:34:55.545Z,51.70
2022-08-04T13:37:25.769Z,51.80
2022-08-04T13:39:55.569Z,52.00
2022-08-04T13:42:23.520Z,52.00
2022-08-04T13:44:53.627Z,52.30
2022-08-04T13:47:20.841Z,52.20
2022-08-04T13:50:11.370Z,52.30
2022-08-04T13:52:39.549Z,52.50
2022-08-04T13:55:06.969Z,52.50
2022-08-04T13:57:35.655Z,52.30
2022-08-04T14:00:04.449Z,52.10
2022-08-04T14:02:38.400Z,52.00
2022-08-04T14:05:08.286Z,51.60
2022-08-04T14:07:46.672Z,51.40
2022-08-04T14:10:13.947Z,51.40
2022-08-04T14:12:47.418Z,51.60
2022-08-04T14:16:02.233Z,51.70
2022-08-04T14:18:32.336Z,52.00
2022-08-04T14:21:11.010Z,52.20
2022-08-04T14:23:47.049Z,52.40
2022-08-04T14:26:14.734Z,52.80
2022-08-04T14:29:08.772Z,52.90
2022-08-04T14:31:30.933Z,53.10
2022-08-04T14:34:02.570Z,53.30
2022-08-04T14:37:04.604Z,53.30
2022-08-04T14:40:18.878Z,53.50
2022-08-04T14:42:55.712Z,53.10
2022-08-04T14:45:31.064Z,52.70
2022-08-04T14:47:58.307Z,52.30
2022-08-04T14:50:35.814Z,52.10
2022-08-04T14:53:09.802Z,51.90
2022-08-04T14:55:38.106Z,51.90
2022-08-04T14:58:36.227Z,52.20
2022-08-04T15:00:52.810Z,52.40
2022-08-04T15:03:20.704Z,52.80
2022-08-04T15:06:01.911Z,53.00
2022-08-04T15:08:32.517Z,53.30
2022-08-04T15:11:03.010Z,53.40
2022-08-04T15:13:31.329Z,53.60
2022-08-04T15:16:07.435Z,53.80
2022-08-04T15:18:35.916Z,53.70
2022-08-04T15:21:03.971Z,54.10
2022-08-04T15:23:38.428Z,54.00
2022-08-04T15:26:07.735Z,53.70
2022-08-04T15:28:34.810Z,53.40
2022-08-04T15:31:02.180Z,53.10
2022-08-04T15:33:33.625Z,52.80
2022-08-04T15:36:17.685Z,52.50
2022-08-04T15:38:51.426Z,52.30
2022-08-04T15:41:23.045Z,52.20
2022-08-04T15:44:17.648Z,52.50
2022-08-04T15:46:47.542Z,53.00
2022-08-04T15:49:21.351Z,53.60
2022-08-04T15:51:48.844Z,54.00
2022-08-04T15:54:23.295Z,54.50
2022-08-04T15:57:02.209Z,54.80
2022-08-04T15:59:51.600Z,55.10
2022-08-04T16:02:30.921Z,55.30
2022-08-04T16:05:18.929Z,55.30
2022-08-04T16:07:57.474Z,55.50
2022-08-04T16:10:30.829Z,54.90
2022-08-04T16:12:58.556Z,54.70
2022-08-04T16:15:44.555Z,54.20
2022-08-04T16:18:25.819Z,53.90
2022-08-04T16:20:58.202Z,53.40
2022-08-04T16:23:52.976Z,53.40
2022-08-04T16:26:45.406Z,53.60
2022-08-04T16:29:28.736Z,53.80
2022-08-04T16:32:04.849Z,54.00
2022-08-04T16:34:53.917Z,54.20
2022-08-04T16:37:38.486Z,54.40
2022-08-04T16:40:24.097Z,54.50
2022-08-04T16:42:51.087Z,54.50
2022-08-04T16:45:18.395Z,54.50
2022-08-04T16:47:48.695Z,54.50
2022-08-04T16:50:15.408Z,54.70
2022-08-04T16:52:49.306Z,54.50
2022-08-04T16:55:16.733Z,54.30
2022-08-04T16:57:46.994Z,53.90
2022-08-04T17:00:13.762Z,54.20
2022-08-04T17:02:40.592Z,53.20
2022-08-04T17:05:11.107Z,53.20
2022-08-04T17:08:13.102Z,53.30
2022-08-04T17:10:41.489Z,53.50
2022-08-04T17:14:03.759Z,53.80
2022-08-04T17:16:13.445Z,54.00
2022-08-04T17:18:45.364Z,54.10
2022-08-04T17:21:13.250Z,54.50
2022-08-04T17:24:14.402Z,54.50
2022-08-04T17:26:40.026Z,54.50
2022-08-04T17:29:09.147Z,54.50
2022-08-04T17:31:37.426Z,54.50
2022-08-04T17:34:16.752Z,54.50
2022-08-04T17:36:46.178Z,54.40
2022-08-04T17:39:21.307Z,54.00
2022-08-04T17:41:49.189Z,53.60
2022-08-04T17:44:16.339Z,53.40
2022-08-04T17:46:45.413Z,53.00
2022-08-04T17:49:19.174Z,53.10
2022-08-04T17:52:04.768Z,53.20
2022-08-04T17:54:37.223Z,53.50
2022-08-04T17:57:15.279Z,53.80
2022-08-04T17:59:52.938Z,53.90
2022-08-04T18:02:23.189Z,54.20
2022-08-04T18:08:40.814Z,54.50
2022-08-04T18:10:55.737Z,54.50
2022-08-04T18:13:26.849Z,54.50
2022-08-04T18:16:22.805Z,54.50
2022-08-04T18:19:07.354Z,54.50
2022-08-04T18:21:34.057Z,54.20
2022-08-04T18:24:13.809Z,53.90
2022-08-04T18:26:40.559Z,53.60
2022-08-04T18:29:08.012Z,53.30
2022-08-04T18:31:55.718Z,53.20
2022-08-04T18:34:24.977Z,53.20
2022-08-04T18:36:57.437Z,53.60
2022-08-04T18:40:25.072Z,53.70
2022-08-04T18:42:14.938Z,53.80
2022-08-04T18:44:52.119Z,54.10
2022-08-04T18:47:23.155Z,54.20
2022-08-04T18:51:00.805Z,54.60
2022-08-04T18:52:41.878Z,54.50
2022-08-04T18:55:12.167Z,54.50
2022-08-04T18:58:00.839Z,54.40
2022-08-04T19:00:25.941Z,54.50
2022-08-04T19:02:52.733Z,54.80
2022-08-04T19:05:19.819Z,54.70
2022-08-04T19:08:11.246Z,54.50
2022-08-04T19:10:34.731Z,54.40
2022-08-04T19:13:01.525Z,54.00
2022-08-04T19:15:34.110Z,53.70
2022-08-04T19:18:02.306Z,53.50
2022-08-04T19:20:31.630Z,53.20
2022-08-04T19:24:29.285Z,53.30
2022-08-04T19:26:02.450Z,54.10
2022-08-04T19:28:31.892Z,53.70
2022-08-04T19:31:02.437Z,53.90
2022-08-04T19:33:55.548Z,53.90
2022-08-04T19:36:17.276Z,54.20
2022-08-04T19:38:44.593Z,54.60
2022-08-04T19:41:14.309Z,54.50
2022-08-04T19:43:43.858Z,54.50
2022-08-04T19:46:12.259Z,54.50
2022-08-04T19:48:39.585Z,54.50
2022-08-04T19:51:07.813Z,54.50
2022-08-04T19:53:37.282Z,54.50
2022-08-04T19:56:05.060Z,54.40
2022-08-04T19:58:31.761Z,54.50
2022-08-04T20:00:58.475Z,54.20
2022-08-04T20:04:09.836Z,53.90
2022-08-04T20:06:12.362Z,53.50
2022-08-04T20:08:39.069Z,53.70
2022-08-04T20:11:16.054Z,52.70
2022-08-04T20:13:54.423Z,52.30
2022-08-04T20:16:29.418Z,52.30
2022-08-04T20:19:02.874Z,52.40
2022-08-04T20:24:38.055Z,52.40
2022-08-04T20:27:09.018Z,52.60
2022-08-04T20:29:43.229Z,52.70
2022-08-04T20:32:10.353Z,52.80
2022-08-04T20:34:41.459Z,52.70
2022-08-04T20:37:10.020Z,53.00
2022-08-04T20:39:37.462Z,53.20
2022-08-04T20:42:04.289Z,53.80
2022-08-04T20:44:31.050Z,53.40
2022-08-04T20:46:57.923Z,53.20
2022-08-04T20:49:34.923Z,53.40
2022-08-04T20:52:12.114Z,53.50
2022-08-04T20:54:41.883Z,53.30
2022-08-04T20:57:15.024Z,52.90
2022-08-04T20:59:43.929Z,52.80
2022-08-04T21:02:24.977Z,52.50
2022-08-04T21:04:53.782Z,52.00
2022-08-04T21:07:21.979Z,51.90
2022-08-04T21:09:50.615Z,52.20
2022-08-04T21:12:28.172Z,51.60
2022-08-04T21:14:57.142Z,51.90
2022-08-04T21:17:59.163Z,51.90
2022-08-04T21:23:01.781Z,52.30
2022-08-04T21:25:30.847Z,52.60
2022-08-04T21:27:58.969Z,52.40
2022-08-04T21:30:28.761Z,52.60
2022-08-04T21:32:55.722Z,52.60
2022-08-04T21:35:37.496Z,52.60
2022-08-04T21:38:16.321Z,52.80
2022-08-04T21:40:53.908Z,52.80
2022-08-04T21:43:27.299Z,53.10
2022-08-04T21:45:55.732Z,52.80
2022-08-04T21:48:22.963Z,52.60
2022-08-04T21:50:50.780Z,52.20
2022-08-04T21:53:19.718Z,52.00
2022-08-04T21:56:06.755Z,51.50
2022-08-04T21:58:34.008Z,51.10
2022-08-04T22:01:00.765Z,51.40
2022-08-04T22:03:51.654Z,51.50
2022-08-04T22:06:19.625Z,51.80
2022-08-04T22:08:49.435Z,52.10
2022-08-04T22:11:23.161Z,52.20
2022-08-04T22:14:10.666Z,52.40
2022-08-04T22:16:38.336Z,52.50
2022-08-04T22:19:06.770Z,52.60
2022-08-04T22:21:39.288Z,52.60
2022-08-04T22:24:14.049Z,52.60
2022-08-04T22:26:40.947Z,52.80
2022-08-04T22:29:07.678Z,52.70
2022-08-04T22:31:55.581Z,52.80
2022-08-04T22:34:24.746Z,52.90
2022-08-04T22:36:52.582Z,53.10
2022-08-04T22:39:20.582Z,52.60
2022-08-04T22:42:04.119Z,52.20
2022-08-04T22:44:33.017Z,51.90
2022-08-04T22:47:00.348Z,51.40
2022-08-04T22:49:31.775Z,51.40
2022-08-04T22:51:58.872Z,51.40
2022-08-04T22:54:26.011Z,51.60
2022-08-04T22:56:55.409Z,51.70
2022-08-04T22:59:23.699Z,51.90
2022-08-04T23:01:58.107Z,52.00
2022-08-04T23:04:26.770Z,52.10
2022-08-04T23:06:54.838Z,52.30
2022-08-04T23:09:21.994Z,52.50
2022-08-04T23:12:08.598Z,52.50
2022-08-04T23:14:43.520Z,52.50
2022-08-04T23:17:13.112Z,52.60
2022-08-04T23:19:41.309Z,52.70
2022-08-04T23:22:08.051Z,52.80
2022-08-04T23:24:34.771Z,52.70
2022-08-04T23:27:01.676Z,52.80
2022-08-04T23:29:52.649Z,52.80
2022-08-04T23:32:15.146Z,52.40
2022-08-04T23:34:47.043Z,52.00
2022-08-04T23:37:13.783Z,51.70
2022-08-04T23:40:17.881Z,51.20
2022-08-04T23:42:29.239Z,51.30
2022-08-04T23:44:56.028Z,51.30
2022-08-04T23:48:15.455Z,51.20
2022-08-04T23:50:09.649Z,51.40
2022-08-04T23:52:36.340Z,51.60
2022-08-04T23:55:03.199Z,51.60
2022-08-04T23:58:05.997Z,51.90
